createdAt,value
2018-09-14T00:01:49.510Z,82.00
2018-09-14T00:04:19.602Z,81.80
2018-09-14T00:06:48.201Z,81.80
2018-09-14T00:09:19.077Z,82.30
2018-09-14T00:11:50.564Z,82.20
2018-09-14T00:14:20.458Z,82.20
2018-09-14T00:16:50.737Z,82.10
2018-09-14T00:19:20.535Z,82.10
2018-09-14T00:21:50.885Z,82.10
2018-09-14T00:24:20.333Z,82.10
2018-09-14T00:26:50.071Z,82.20
2018-09-14T00:29:19.081Z,82.40
2018-09-14T00:31:47.398Z,83.10
2018-09-14T00:34:15.870Z,82.80
2018-09-14T00:36:45.631Z,83.00
2018-09-14T00:39:13.854Z,82.80
2018-09-14T00:41:42.163Z,82.80
2018-09-14T00:44:10.756Z,83.10
2018-09-14T00:46:38.989Z,83.10
2018-09-14T00:49:07.357Z,82.90
2018-09-14T00:51:35.627Z,82.70
2018-09-14T00:54:03.954Z,82.80
2018-09-14T00:56:32.196Z,83.10
2018-09-14T00:59:00.438Z,83.20
2018-09-14T01:01:28.815Z,83.60
2018-09-14T01:03:57.072Z,82.90
2018-09-14T01:06:25.364Z,83.60
2018-09-14T01:08:53.611Z,83.20
2018-09-14T01:11:21.882Z,83.70
2018-09-14T01:13:50.426Z,83.10
2018-09-14T01:16:18.660Z,83.50
2018-09-14T01:18:48.760Z,83.10
2018-09-14T01:21:17.329Z,83.30
2018-09-14T01:23:45.699Z,83.10
2018-09-14T01:26:14.000Z,83.10
2018-09-14T01:28:42.512Z,83.20
2018-09-14T01:31:10.786Z,83.30
2018-09-14T01:33:39.041Z,83.40
2018-09-14T01:36:12.068Z,83.30
2018-09-14T01:38:44.373Z,83.10
2018-09-14T01:41:13.144Z,83.10
2018-09-14T01:43:41.445Z,83.20
2018-09-14T01:46:09.715Z,82.90
2018-09-14T01:48:38.003Z,83.10
2018-09-14T01:51:06.261Z,83.00
2018-09-14T01:53:34.543Z,83.30
2018-09-14T01:56:02.805Z,83.50
2018-09-14T01:58:31.046Z,83.70
2018-09-14T02:00:59.276Z,84.00
2018-09-14T02:03:28.778Z,83.70
2018-09-14T02:05:57.005Z,83.60
2018-09-14T02:08:25.249Z,83.80
2018-09-14T02:10:53.485Z,83.70
2018-09-14T02:13:21.731Z,83.80
2018-09-14T02:15:50.003Z,84.00
2018-09-14T02:18:18.235Z,84.10
2018-09-14T02:20:46.494Z,84.30
2018-09-14T02:23:14.790Z,84.50
2018-09-14T02:25:43.200Z,84.50
2018-09-14T02:28:11.394Z,84.60
2018-09-14T02:30:39.715Z,84.80
2018-09-14T02:33:08.421Z,85.10
2018-09-14T02:35:36.658Z,85.10
2018-09-14T02:38:04.923Z,85.10
2018-09-14T02:40:33.190Z,85.00
2018-09-14T02:43:01.436Z,85.00
2018-09-14T02:45:29.738Z,85.10
2018-09-14T02:47:58.292Z,84.80
2018-09-14T02:50:26.553Z,84.60
2018-09-14T02:52:54.838Z,84.90
2018-09-14T02:55:23.103Z,85.20
2018-09-14T02:57:51.370Z,85.10
2018-09-14T03:00:19.725Z,85.70
2018-09-14T03:02:48.102Z,85.10
2018-09-14T03:05:16.597Z,85.20
2018-09-14T03:07:44.845Z,85.00
2018-09-14T03:10:13.135Z,84.90
2018-09-14T03:12:42.899Z,85.00
2018-09-14T03:15:11.172Z,85.10
2018-09-14T03:17:39.434Z,85.30
2018-09-14T03:20:07.763Z,85.10
2018-09-14T03:22:36.017Z,85.00
2018-09-14T03:25:04.267Z,85.10
2018-09-14T03:27:33.099Z,85.30
2018-09-14T03:30:01.346Z,85.30
2018-09-14T03:32:29.661Z,85.00
2018-09-14T03:34:57.918Z,85.00
2018-09-14T03:37:26.200Z,85.10
2018-09-14T03:39:54.513Z,85.00
2018-09-14T03:42:23.111Z,85.10
2018-09-14T03:44:51.435Z,85.10
2018-09-14T03:47:19.691Z,85.20
2018-09-14T03:49:47.950Z,85.10
2018-09-14T03:52:16.871Z,85.20
2018-09-14T03:54:45.201Z,85.50
2018-09-14T03:57:13.531Z,85.80
2018-09-14T03:59:42.261Z,85.60
2018-09-14T04:02:10.509Z,85.40
2018-09-14T04:04:38.779Z,85.40
2018-09-14T04:07:08.071Z,85.50
2018-09-14T04:09:36.882Z,86.20
2018-09-14T04:12:05.132Z,85.60
2018-09-14T04:14:33.438Z,85.50
2018-09-14T04:17:01.714Z,85.60
2018-09-14T04:19:29.997Z,85.80
2018-09-14T04:21:58.323Z,86.00
2018-09-14T04:24:26.593Z,86.00
2018-09-14T04:26:54.853Z,86.00
2018-09-14T04:29:23.113Z,86.20
2018-09-14T04:31:51.371Z,86.20
2018-09-14T04:34:19.671Z,86.20
2018-09-14T04:36:47.922Z,86.20
2018-09-14T04:39:16.218Z,86.60
2018-09-14T04:41:44.476Z,86.40
2018-09-14T04:44:12.731Z,86.60
2018-09-14T04:46:40.995Z,86.50
2018-09-14T04:49:09.315Z,86.80
2018-09-14T04:51:39.556Z,86.50
2018-09-14T04:54:09.232Z,86.70
2018-09-14T04:56:38.446Z,86.50
2018-09-14T04:59:15.364Z,86.60
2018-09-14T05:01:46.339Z,86.50
2018-09-14T05:04:42.817Z,86.50
2018-09-14T05:07:19.352Z,86.90
2018-09-14T05:12:37.494Z,86.60
2018-09-14T05:15:17.830Z,86.90
2018-09-14T05:17:52.623Z,86.80
2018-09-14T05:20:22.475Z,86.70
2018-09-14T05:22:51.342Z,86.90
2018-09-14T05:25:20.477Z,87.00
2018-09-14T05:27:49.391Z,87.00
2018-09-14T05:30:17.966Z,87.00
2018-09-14T05:32:46.237Z,87.00
2018-09-14T05:35:14.505Z,87.40
2018-09-14T05:37:43.297Z,87.70
2018-09-14T05:40:11.577Z,87.60
2018-09-14T05:42:39.839Z,87.70
2018-09-14T05:45:08.129Z,87.90
2018-09-14T05:47:36.423Z,88.00
2018-09-14T05:50:04.658Z,88.30
2018-09-14T05:52:32.918Z,88.00
2018-09-14T05:55:01.204Z,88.10
2018-09-14T05:57:30.061Z,88.00
2018-09-14T06:00:01.050Z,88.40
2018-09-14T06:02:30.155Z,89.10
2018-09-14T06:04:58.411Z,88.80
2018-09-14T06:07:26.941Z,88.60
2018-09-14T06:09:55.197Z,88.70
2018-09-14T06:12:23.474Z,88.90
2018-09-14T06:14:51.766Z,89.30
2018-09-14T06:17:20.065Z,90.30
2018-09-14T06:19:50.644Z,89.40
2018-09-14T06:22:22.602Z,89.70
2018-09-14T06:24:52.388Z,89.70
2018-09-14T06:27:31.168Z,90.20
2018-09-14T06:30:00.194Z,90.00
2018-09-14T06:32:29.789Z,90.30
2018-09-14T06:34:58.159Z,90.30
2018-09-14T06:37:26.403Z,90.80
2018-09-14T06:39:54.773Z,90.20
2018-09-14T06:42:23.703Z,89.90
2018-09-14T06:44:52.180Z,90.00
2018-09-14T06:47:20.408Z,89.50
2018-09-14T06:49:49.065Z,89.40
2018-09-14T06:52:17.336Z,89.50
2018-09-14T06:54:45.610Z,90.30
2018-09-14T06:57:14.303Z,90.20
2018-09-14T06:59:43.261Z,90.40
2018-09-14T07:04:50.739Z,90.20
2018-09-14T07:07:19.907Z,90.30
2018-09-14T07:09:48.699Z,90.70
2018-09-14T07:12:16.969Z,90.80
2018-09-14T07:14:45.234Z,90.60
2018-09-14T07:17:13.481Z,90.90
2018-09-14T07:19:41.850Z,90.60
2018-09-14T07:22:13.812Z,91.00
2018-09-14T07:24:42.216Z,90.90
2018-09-14T07:27:10.797Z,91.00
2018-09-14T07:29:39.961Z,90.80
2018-09-14T07:32:08.265Z,90.90
2018-09-14T07:34:36.566Z,91.00
2018-09-14T07:37:04.868Z,91.10
2018-09-14T07:39:33.168Z,91.20
2018-09-14T07:42:01.482Z,91.30
2018-09-14T07:44:29.782Z,91.40
2018-09-14T07:46:58.089Z,91.40
2018-09-14T07:49:26.367Z,91.20
2018-09-14T07:51:54.654Z,91.60
2018-09-14T07:54:22.923Z,91.70
2018-09-14T07:56:51.168Z,91.70
2018-09-14T07:59:19.466Z,91.30
2018-09-14T08:01:47.733Z,91.50
2018-09-14T08:04:16.043Z,91.90
2018-09-14T08:06:44.795Z,91.80
2018-09-14T08:09:14.042Z,91.80
2018-09-14T08:11:42.704Z,91.70
2018-09-14T08:14:11.738Z,91.60
2018-09-14T08:16:45.871Z,91.50
2018-09-14T08:19:14.443Z,91.50
2018-09-14T08:21:42.777Z,91.30
2018-09-14T08:24:10.998Z,91.10
2018-09-14T08:26:39.334Z,91.00
2018-09-14T08:29:08.231Z,90.70
2018-09-14T08:34:29.138Z,89.40
2018-09-14T08:36:59.415Z,89.60
2018-09-14T08:39:27.705Z,89.10
2018-09-14T08:41:56.015Z,88.50
2018-09-14T08:44:24.311Z,87.60
2018-09-14T08:46:53.457Z,86.50
2018-09-14T08:49:21.747Z,87.00
2018-09-14T08:51:50.027Z,86.90
2018-09-14T08:54:24.902Z,86.40
2018-09-14T08:56:54.220Z,86.30
2018-09-14T08:59:23.443Z,86.40
2018-09-14T09:01:51.735Z,85.30
2018-09-14T09:04:20.583Z,85.90
2018-09-14T09:06:49.902Z,85.50
2018-09-14T09:09:18.547Z,86.10
2018-09-14T09:11:46.752Z,86.40
2018-09-14T09:14:14.986Z,86.30
2018-09-14T09:16:43.344Z,85.10
2018-09-14T09:19:13.159Z,85.80
2018-09-14T09:21:41.372Z,84.90
2018-09-14T09:24:09.776Z,85.30
2018-09-14T09:26:39.929Z,85.00
2018-09-14T09:29:19.278Z,84.80
2018-09-14T09:31:48.080Z,84.20
2018-09-14T09:34:18.097Z,84.60
2018-09-14T09:36:46.384Z,84.30
2018-09-14T09:39:15.407Z,83.70
2018-09-14T09:41:43.738Z,84.20
2018-09-14T09:44:12.171Z,84.30
2018-09-14T09:46:41.087Z,84.70
2018-09-14T09:49:09.474Z,84.40
2018-09-14T09:51:38.366Z,84.00
2018-09-14T09:54:06.600Z,83.70
2018-09-14T09:56:36.090Z,83.10
2018-09-14T09:59:04.412Z,83.10
2018-09-14T10:01:34.858Z,83.40
2018-09-14T10:04:08.872Z,82.50
2018-09-14T10:06:37.310Z,82.20
2018-09-14T10:09:08.114Z,81.20
2018-09-14T10:11:37.638Z,81.00
2018-09-14T10:14:08.758Z,81.20
2018-09-14T10:16:40.575Z,82.00
2018-09-14T10:19:09.485Z,81.20
2018-09-14T10:21:41.005Z,81.60
2018-09-14T10:24:09.302Z,81.70
2018-09-14T10:26:37.688Z,79.20
2018-09-14T10:29:06.746Z,79.10
2018-09-14T10:31:35.990Z,77.70
2018-09-14T10:34:04.520Z,78.20
2018-09-14T10:36:34.362Z,78.10
2018-09-14T10:39:04.059Z,78.20
2018-09-14T10:41:33.321Z,78.00
2018-09-14T10:44:04.888Z,76.00
2018-09-14T10:46:34.018Z,77.10
2018-09-14T10:49:04.008Z,76.90
2018-09-14T10:51:33.485Z,76.30
2018-09-14T10:54:02.745Z,75.90
2018-09-14T10:56:34.134Z,75.60
2018-09-14T10:59:02.611Z,73.00
2018-09-14T11:01:31.560Z,72.90
2018-09-14T11:04:04.361Z,71.90
2018-09-14T11:06:33.550Z,72.40
2018-09-14T11:09:06.395Z,73.50
2018-09-14T11:11:37.627Z,72.40
2018-09-14T11:14:07.999Z,71.60
2018-09-14T11:16:38.652Z,71.90
2018-09-14T11:19:08.225Z,72.80
2018-09-14T11:21:37.647Z,74.00
2018-09-14T11:24:12.062Z,74.20
2018-09-14T11:26:40.378Z,73.00
2018-09-14T11:32:28.726Z,71.10
2018-09-14T11:34:58.060Z,73.40
2018-09-14T11:37:27.424Z,71.30
2018-09-14T11:39:57.031Z,71.80
2018-09-14T11:42:26.917Z,71.50
2018-09-14T11:44:55.640Z,73.50
2018-09-14T11:47:24.581Z,71.40
2018-09-14T11:49:53.318Z,72.20
2018-09-14T11:52:22.147Z,72.00
2018-09-14T11:54:50.929Z,71.60
2018-09-14T11:57:19.520Z,71.10
2018-09-14T11:59:48.039Z,71.00
2018-09-14T12:02:16.505Z,71.80
2018-09-14T12:04:45.150Z,70.60
2018-09-14T12:07:13.778Z,69.00
2018-09-14T12:09:42.536Z,69.10
2018-09-14T12:12:11.044Z,69.00
2018-09-14T12:14:39.463Z,67.90
2018-09-14T12:17:07.911Z,68.30
2018-09-14T12:19:36.292Z,68.30
2018-09-14T12:22:04.812Z,68.20
2018-09-14T12:24:33.254Z,69.60
2018-09-14T12:27:02.054Z,69.20
2018-09-14T12:29:30.574Z,67.90
2018-09-14T12:31:59.162Z,69.40
2018-09-14T12:34:27.628Z,69.30
2018-09-14T12:36:56.273Z,69.60
2018-09-14T12:39:25.082Z,68.80
2018-09-14T12:41:54.178Z,70.10
2018-09-14T12:44:22.660Z,69.50
2018-09-14T12:46:51.106Z,69.40
2018-09-14T12:49:19.428Z,69.30
2018-09-14T12:51:47.870Z,70.70
2018-09-14T12:54:16.287Z,70.10
2018-09-14T12:56:46.351Z,69.90
2018-09-14T12:59:15.073Z,69.20
2018-09-14T13:01:43.428Z,70.10
2018-09-14T13:04:11.934Z,70.10
2018-09-14T13:06:42.565Z,69.50
2018-09-14T13:09:12.653Z,70.50
2018-09-14T13:11:41.834Z,69.00
2018-09-14T13:14:10.776Z,70.60
2018-09-14T13:16:40.448Z,69.40
2018-09-14T13:19:09.796Z,68.70
2018-09-14T13:21:39.516Z,65.50
2018-09-14T13:24:08.087Z,65.90
2018-09-14T13:26:37.450Z,66.50
2018-09-14T13:29:06.130Z,65.30
2018-09-14T13:31:34.678Z,65.30
2018-09-14T13:34:03.378Z,65.60
2018-09-14T13:36:31.797Z,64.40
2018-09-14T13:39:00.135Z,66.60
2018-09-14T13:41:30.272Z,65.80
2018-09-14T13:43:58.586Z,66.00
2018-09-14T13:46:26.938Z,66.20
2018-09-14T13:48:55.465Z,66.00
2018-09-14T13:51:23.844Z,66.80
2018-09-14T13:53:53.507Z,69.00
2018-09-14T13:56:22.941Z,68.10
2018-09-14T13:58:51.230Z,67.80
2018-09-14T14:01:23.679Z,67.60
2018-09-14T14:03:52.009Z,65.90
2018-09-14T14:06:20.334Z,66.80
2018-09-14T14:08:48.766Z,66.70
2018-09-14T14:11:17.182Z,67.40
2018-09-14T14:13:45.835Z,66.50
2018-09-14T14:16:14.239Z,66.00
2018-09-14T14:18:49.084Z,66.60
2018-09-14T14:21:17.813Z,67.20
2018-09-14T14:23:46.477Z,66.90
2018-09-14T14:26:15.819Z,67.90
2018-09-14T14:28:44.241Z,68.70
2018-09-14T14:31:12.864Z,68.80
2018-09-14T14:33:42.401Z,67.30
2018-09-14T14:36:11.699Z,68.60
2018-09-14T14:38:40.194Z,66.50
2018-09-14T14:41:09.309Z,67.30
2018-09-14T14:43:39.336Z,68.30
2018-09-14T14:46:07.840Z,67.80
2018-09-14T14:48:36.276Z,68.60
2018-09-14T14:51:05.021Z,68.70
2018-09-14T14:53:33.496Z,67.80
2018-09-14T14:56:02.432Z,67.60
2018-09-14T14:58:30.833Z,66.40
2018-09-14T15:00:59.220Z,67.40
2018-09-14T15:03:27.858Z,68.30
2018-09-14T15:05:56.625Z,68.10
2018-09-14T15:08:24.999Z,66.60
2018-09-14T15:10:54.311Z,68.70
2018-09-14T15:13:22.759Z,70.00
2018-09-14T15:15:51.105Z,67.30
2018-09-14T15:18:22.610Z,65.10
2018-09-14T15:20:51.044Z,65.80
2018-09-14T15:23:19.691Z,65.60
2018-09-14T15:25:48.334Z,65.40
2018-09-14T15:28:18.208Z,65.00
2018-09-14T15:30:47.177Z,63.70
2018-09-14T15:33:23.605Z,64.10
2018-09-14T15:36:01.244Z,63.70
2018-09-14T15:38:32.076Z,64.80
2018-09-14T15:41:01.215Z,64.00
2018-09-14T15:43:30.075Z,63.90
2018-09-14T15:45:59.936Z,64.70
2018-09-14T15:48:28.580Z,64.20
2018-09-14T15:50:57.408Z,64.20
2018-09-14T15:53:29.172Z,64.30
2018-09-14T15:58:36.377Z,65.10
2018-09-14T16:01:05.638Z,66.00
2018-09-14T16:03:35.783Z,65.90
2018-09-14T16:06:04.993Z,66.60
2018-09-14T16:08:34.760Z,67.10
2018-09-14T16:11:04.254Z,68.40
2018-09-14T16:13:34.449Z,67.80
2018-09-14T16:16:05.031Z,67.70
2018-09-14T16:18:34.327Z,68.00
2018-09-14T16:21:03.507Z,68.50
2018-09-14T16:23:32.484Z,68.10
2018-09-14T16:26:01.544Z,68.00
2018-09-14T16:28:30.562Z,68.00
2018-09-14T16:30:59.605Z,67.70
2018-09-14T16:33:28.172Z,68.40
2018-09-14T16:35:57.571Z,68.30
2018-09-14T16:38:26.293Z,67.80
2018-09-14T16:40:54.833Z,68.30
2018-09-14T16:43:23.842Z,67.60
2018-09-14T16:45:52.298Z,67.30
2018-09-14T16:48:20.848Z,67.00
2018-09-14T16:50:49.416Z,67.60
2018-09-14T16:53:17.834Z,68.30
2018-09-14T16:55:46.935Z,68.30
2018-09-14T16:58:15.988Z,68.30
2018-09-14T17:00:44.789Z,69.40
2018-09-14T17:03:13.610Z,69.40
2018-09-14T17:05:44.169Z,69.00
2018-09-14T17:08:12.696Z,69.00
2018-09-14T17:10:41.008Z,68.40
2018-09-14T17:13:09.400Z,68.60
2018-09-14T17:15:37.779Z,68.50
2018-09-14T17:18:06.388Z,68.50
2018-09-14T17:20:34.744Z,68.00
2018-09-14T17:23:03.118Z,68.50
2018-09-14T17:25:31.573Z,68.90
2018-09-14T17:27:59.927Z,68.50
2018-09-14T17:30:28.311Z,68.60
2018-09-14T17:32:56.808Z,68.20
2018-09-14T17:35:25.294Z,68.40
2018-09-14T17:37:53.694Z,69.10
2018-09-14T17:40:22.487Z,67.80
2018-09-14T17:42:51.922Z,68.50
2018-09-14T17:45:20.466Z,68.10
2018-09-14T17:47:48.869Z,68.40
2018-09-14T17:50:17.291Z,68.30
2018-09-14T17:52:46.181Z,68.50
2018-09-14T17:55:15.180Z,68.70
2018-09-14T17:57:45.203Z,69.10
2018-09-14T18:00:14.173Z,68.80
2018-09-14T18:02:43.384Z,69.30
2018-09-14T18:05:12.583Z,69.50
2018-09-14T18:07:41.563Z,69.60
2018-09-14T18:10:11.368Z,69.70
2018-09-14T18:12:40.203Z,69.80
2018-09-14T18:15:09.350Z,69.60
2018-09-14T18:17:38.831Z,69.10
2018-09-14T18:20:08.318Z,69.20
2018-09-14T18:22:37.563Z,69.10
2018-09-14T18:25:06.557Z,69.30
2018-09-14T18:27:35.339Z,69.50
2018-09-14T18:30:04.702Z,69.60
2018-09-14T18:32:34.622Z,69.60
2018-09-14T18:35:03.234Z,69.00
2018-09-14T18:37:31.566Z,69.50
2018-09-14T18:40:00.043Z,69.40
2018-09-14T18:42:28.375Z,69.30
2018-09-14T18:44:56.667Z,69.40
2018-09-14T18:47:25.305Z,69.20
2018-09-14T18:49:53.646Z,69.00
2018-09-14T18:52:22.411Z,69.30
2018-09-14T18:54:50.928Z,69.40
2018-09-14T18:57:20.486Z,69.70
2018-09-14T18:59:49.374Z,70.00
2018-09-14T19:02:18.248Z,70.40
2018-09-14T19:04:46.702Z,70.90
2018-09-14T19:07:28.363Z,71.00
2018-09-14T19:10:10.193Z,71.50
2018-09-14T19:13:04.656Z,71.50
2018-09-14T19:15:42.841Z,71.70
2018-09-14T19:18:13.262Z,71.30
2018-09-14T19:20:42.602Z,71.40
2018-09-14T19:23:11.302Z,71.70
2018-09-14T19:25:40.307Z,71.40
2018-09-14T19:28:10.051Z,72.00
2018-09-14T19:30:39.551Z,72.00
2018-09-14T19:33:10.329Z,72.10
2018-09-14T19:35:42.907Z,72.10
2018-09-14T19:38:13.737Z,72.10
2018-09-14T19:40:49.290Z,72.90
2018-09-14T19:43:19.227Z,72.10
2018-09-14T19:45:50.277Z,72.10
2018-09-14T19:48:19.964Z,72.40
2018-09-14T19:50:49.794Z,72.70
2018-09-14T19:53:18.895Z,73.10
2018-09-14T19:55:47.699Z,73.20
2018-09-14T19:58:20.392Z,72.90
2018-09-14T20:00:51.286Z,73.40
2018-09-14T20:03:21.061Z,73.40
2018-09-14T20:05:50.434Z,73.50
2018-09-14T20:08:19.689Z,73.60
2018-09-14T20:10:50.611Z,73.70
2018-09-14T20:13:22.361Z,73.90
2018-09-14T20:15:51.981Z,74.80
2018-09-14T20:18:21.041Z,74.40
2018-09-14T20:20:51.351Z,74.50
2018-09-14T20:23:21.005Z,74.60
2018-09-14T20:25:49.909Z,74.50
2018-09-14T20:31:19.037Z,75.10
2018-09-14T20:33:47.523Z,75.40
2018-09-14T20:36:15.793Z,75.40
2018-09-14T20:38:44.148Z,75.80
2018-09-14T20:41:12.426Z,76.50
2018-09-14T20:43:40.684Z,77.90
2018-09-14T20:46:08.994Z,78.30
2018-09-14T20:48:37.990Z,79.50
2018-09-14T20:51:06.345Z,79.70
2018-09-14T20:53:34.686Z,80.80
2018-09-14T20:56:02.953Z,81.70
2018-09-14T20:58:31.255Z,83.20
2018-09-14T21:00:59.515Z,82.10
2018-09-14T21:03:27.790Z,84.10
2018-09-14T21:05:56.810Z,83.50
2018-09-14T21:08:25.372Z,83.50
2018-09-14T21:10:53.672Z,83.20
2018-09-14T21:13:21.942Z,83.50
2018-09-14T21:15:50.571Z,83.80
2018-09-14T21:18:21.982Z,84.10
2018-09-14T21:20:52.977Z,83.60
2018-09-14T21:23:22.885Z,84.50
2018-09-14T21:25:53.619Z,84.10
2018-09-14T21:28:23.635Z,84.80
2018-09-14T21:30:54.085Z,84.50
2018-09-14T21:33:25.413Z,85.50
2018-09-14T21:35:54.082Z,84.90
2018-09-14T21:38:24.853Z,85.00
2018-09-14T21:40:55.160Z,84.80
2018-09-14T21:43:25.859Z,84.90
2018-09-14T21:45:56.869Z,85.00
2018-09-14T21:48:27.751Z,84.80
2018-09-14T21:50:58.027Z,85.20
2018-09-14T21:53:26.501Z,85.30
2018-09-14T21:55:57.649Z,85.30
2018-09-14T21:58:30.639Z,85.90
2018-09-14T22:01:05.690Z,85.70
2018-09-14T22:03:34.316Z,85.60
2018-09-14T22:06:02.881Z,85.20
2018-09-14T22:08:32.568Z,85.20
2018-09-14T22:11:01.899Z,85.60
2018-09-14T22:13:30.840Z,85.50
2018-09-14T22:16:00.388Z,85.60
2018-09-14T22:18:31.566Z,86.30
2018-09-14T22:21:03.324Z,86.00
2018-09-14T22:23:31.848Z,86.30
2018-09-14T22:26:00.513Z,86.50
2018-09-14T22:28:28.910Z,86.40
2018-09-14T22:30:57.322Z,87.00
2018-09-14T22:33:25.735Z,87.10
2018-09-14T22:35:54.372Z,87.10
2018-09-14T22:38:22.688Z,87.20
2018-09-14T22:40:51.081Z,87.30
2018-09-14T22:43:19.506Z,87.60
2018-09-14T22:45:48.438Z,88.00
2018-09-14T22:48:16.924Z,88.40
2018-09-14T22:50:45.455Z,88.80
2018-09-14T22:53:13.839Z,88.80
2018-09-14T22:55:43.842Z,89.40
2018-09-14T22:58:12.561Z,89.40
2018-09-14T23:00:48.114Z,90.00
2018-09-14T23:03:18.606Z,89.70
2018-09-14T23:05:46.992Z,89.70
2018-09-14T23:08:15.447Z,89.80
2018-09-14T23:10:50.759Z,89.40
2018-09-14T23:13:19.193Z,89.70
2018-09-14T23:15:52.993Z,89.60
2018-09-14T23:18:21.301Z,89.60
2018-09-14T23:20:49.777Z,90.00
2018-09-14T23:23:18.234Z,89.70
2018-09-14T23:25:48.141Z,89.90
2018-09-14T23:28:16.648Z,90.20
2018-09-14T23:30:45.514Z,90.00
2018-09-14T23:33:17.814Z,90.00
2018-09-14T23:35:46.641Z,89.90
2018-09-14T23:38:15.972Z,90.10
2018-09-14T23:40:44.307Z,90.40
2018-09-14T23:43:13.383Z,90.30
2018-09-14T23:45:41.899Z,90.20
2018-09-14T23:48:13.544Z,90.20
2018-09-14T23:50:42.001Z,90.40
2018-09-14T23:53:10.504Z,90.50
2018-09-14T23:55:38.944Z,90.30
2018-09-14T23:58:07.452Z,90.40
